Stapleton, Alabama
Current Conditions -  °F | °C
As of 9:53 PM on Sunday 25 Jan 2015 (Local Time) from KBFM Reporting Station
Clear Clear  
Wind Chill: 55°   Ceiling: Unl
Heat Index: 55°   Visibility: 10mi
Dew Point: 42°   Wind: 9mph
Humidity: 62%   Direction: 260°W
Pressure: 29.9"   Gusts: NA
Location:  30.74°N, 87.79°W
Report Text: KBFM 260353Z AUTO 26008KT 10SM CLR 13/06 A2990 RMK AO2 SLP124 T01280056
Loading
Personal Weather Stations






























Interactive Weather Map New forecast layout! Learn more

10-Day Weather Forecast

Advertisements
Track Severe Weather on mobile